createdAt,value
2022-11-21T00:00:15.939Z,994.44
2022-11-21T00:01:15.786Z,994.43
2022-11-21T00:02:15.802Z,994.42
2022-11-21T00:03:15.757Z,994.40
2022-11-21T00:04:15.745Z,994.39
2022-11-21T00:05:15.750Z,994.37
2022-11-21T00:06:15.855Z,994.35
2022-11-21T00:07:15.780Z,994.34
2022-11-21T00:08:15.708Z,994.33
2022-11-21T00:09:15.705Z,994.32
2022-11-21T00:10:15.686Z,994.30
2022-11-21T00:11:15.682Z,994.29
2022-11-21T00:12:15.946Z,994.28
2022-11-21T00:13:15.652Z,994.26
2022-11-21T00:14:15.646Z,994.23
2022-11-21T00:15:15.632Z,994.21
2022-11-21T00:16:15.622Z,994.19
2022-11-21T00:17:15.611Z,994.17
2022-11-21T00:18:15.626Z,994.16
2022-11-21T00:19:15.588Z,994.15
2022-11-21T00:20:15.574Z,994.15
2022-11-21T00:21:15.573Z,994.14
2022-11-21T00:22:15.560Z,994.14
2022-11-21T00:23:15.575Z,994.13
2022-11-21T00:24:15.676Z,994.13
2022-11-21T00:25:15.537Z,994.13
2022-11-21T00:26:15.513Z,994.12
2022-11-21T00:27:15.508Z,994.11
2022-11-21T00:28:15.496Z,994.10
2022-11-21T00:29:15.491Z,994.10
2022-11-21T00:30:15.611Z,994.10
2022-11-21T00:31:15.468Z,994.08
2022-11-21T00:32:15.463Z,994.08
2022-11-21T00:33:15.449Z,994.07
2022-11-21T00:34:15.434Z,994.06
2022-11-21T00:35:15.437Z,994.05
2022-11-21T00:36:15.541Z,994.06
2022-11-21T00:37:15.412Z,994.05
2022-11-21T00:38:15.396Z,994.05
2022-11-21T00:39:15.392Z,994.04
2022-11-21T00:40:15.375Z,994.03
2022-11-21T00:41:15.366Z,994.01
2022-11-21T00:42:15.377Z,993.99
2022-11-21T00:43:15.345Z,993.98
2022-11-21T00:44:15.347Z,993.95
2022-11-21T00:45:19.644Z,993.93
2022-11-21T00:46:15.333Z,993.93
2022-11-21T00:47:15.306Z,993.93
2022-11-21T00:48:15.419Z,993.93
2022-11-21T00:49:15.291Z,993.93
2022-11-21T00:50:15.285Z,993.93
2022-11-21T00:51:15.288Z,993.92
2022-11-21T00:52:15.253Z,993.92
2022-11-21T00:53:15.250Z,993.92
2022-11-21T00:54:15.269Z,993.93
2022-11-21T00:55:15.226Z,993.92
2022-11-21T00:56:15.225Z,993.92
2022-11-21T00:57:15.223Z,993.91
2022-11-21T00:58:15.215Z,993.90
2022-11-21T00:59:15.195Z,993.88
2022-11-21T01:00:15.235Z,993.87
2022-11-21T01:01:15.251Z,993.85
2022-11-21T01:02:15.170Z,993.85
2022-11-21T01:03:15.159Z,993.84
2022-11-21T01:04:15.158Z,993.84
2022-11-21T01:05:15.145Z,993.84
2022-11-21T01:06:15.270Z,993.84
2022-11-21T01:07:15.185Z,993.81
2022-11-21T01:08:15.121Z,993.81
2022-11-21T01:09:15.164Z,993.80
2022-11-21T01:10:15.132Z,993.80
2022-11-21T01:11:15.122Z,993.79
2022-11-21T01:12:15.211Z,993.78
2022-11-21T01:13:15.034Z,993.77
2022-11-21T01:14:15.022Z,993.75
2022-11-21T01:15:15.054Z,993.74
2022-11-21T01:16:15.003Z,993.72
2022-11-21T01:17:15.027Z,993.71
2022-11-21T01:18:15.031Z,993.70
2022-11-21T01:19:15.052Z,993.70
2022-11-21T01:20:14.956Z,993.70
2022-11-21T01:21:14.954Z,993.69
2022-11-21T01:22:15.921Z,993.68
2022-11-21T01:23:14.935Z,993.68
2022-11-21T01:24:15.087Z,993.68
2022-11-21T01:25:14.915Z,993.68
2022-11-21T01:26:14.902Z,993.68
2022-11-21T01:27:14.891Z,993.67
2022-11-21T01:28:14.876Z,993.65
2022-11-21T01:29:14.869Z,993.64
2022-11-21T01:30:14.992Z,993.62
2022-11-21T01:31:14.861Z,993.61
2022-11-21T01:32:14.836Z,993.60
2022-11-21T01:33:14.838Z,993.59
2022-11-21T01:34:14.816Z,993.57
2022-11-21T01:35:14.814Z,993.56
2022-11-21T01:36:14.822Z,993.55
2022-11-21T01:37:14.790Z,993.54
2022-11-21T01:38:14.778Z,993.53
2022-11-21T01:39:14.773Z,993.52
2022-11-21T01:40:14.758Z,993.52
2022-11-21T01:41:14.747Z,993.51
2022-11-21T01:42:14.863Z,993.51
2022-11-21T01:43:14.740Z,993.50
2022-11-21T01:44:14.715Z,993.49
2022-11-21T01:45:14.716Z,993.48
2022-11-21T01:46:14.697Z,993.47
2022-11-21T01:47:14.696Z,993.45
2022-11-21T01:48:14.819Z,993.44
2022-11-21T01:49:14.663Z,993.44
2022-11-21T01:50:14.739Z,993.45
2022-11-21T01:51:14.673Z,993.45
2022-11-21T01:52:14.676Z,993.45
2022-11-21T01:53:14.624Z,993.43
2022-11-21T01:54:14.788Z,993.43
2022-11-21T01:55:14.604Z,993.42
2022-11-21T01:56:14.599Z,993.42
2022-11-21T01:57:14.578Z,993.42
2022-11-21T01:58:14.572Z,993.40
2022-11-21T01:59:14.562Z,993.40
2022-11-21T02:00:14.582Z,993.38
2022-11-21T02:01:14.574Z,993.37
2022-11-21T02:02:14.535Z,993.36
2022-11-21T02:03:14.521Z,993.36
2022-11-21T02:04:14.511Z,993.35
2022-11-21T02:05:14.499Z,993.34
2022-11-21T02:06:14.525Z,993.34
2022-11-21T02:07:14.493Z,993.34
2022-11-21T02:08:14.480Z,993.34
2022-11-21T02:09:14.456Z,993.32
2022-11-21T02:10:14.451Z,993.29
2022-11-21T02:11:14.433Z,993.28
2022-11-21T02:12:14.580Z,993.26
2022-11-21T02:13:14.411Z,993.25
2022-11-21T02:14:14.407Z,993.23
2022-11-21T02:15:14.397Z,993.22
2022-11-21T02:16:14.391Z,993.21
2022-11-21T02:17:14.377Z,993.19
2022-11-21T02:18:14.494Z,993.17
2022-11-21T02:19:14.358Z,993.15
2022-11-21T02:20:14.342Z,993.13
2022-11-21T02:21:14.335Z,993.12
2022-11-21T02:22:14.330Z,993.11
2022-11-21T02:23:14.311Z,993.10
2022-11-21T02:24:14.345Z,993.09
2022-11-21T02:25:14.289Z,993.09
2022-11-21T02:26:14.284Z,993.09
2022-11-21T02:27:14.267Z,993.08
2022-11-21T02:28:14.266Z,993.07
2022-11-21T02:29:14.244Z,993.06
2022-11-21T02:30:14.270Z,993.06
2022-11-21T02:31:14.232Z,993.06
2022-11-21T02:32:14.223Z,993.05
2022-11-21T02:33:14.208Z,993.03
2022-11-21T02:34:14.198Z,993.02
2022-11-21T02:35:14.186Z,993.00
2022-11-21T02:36:14.329Z,992.99
2022-11-21T02:37:14.166Z,992.98
2022-11-21T02:38:14.165Z,992.97
2022-11-21T02:39:14.144Z,992.96
2022-11-21T02:40:14.140Z,992.95
2022-11-21T02:41:14.119Z,992.95
2022-11-21T02:42:14.139Z,992.94
2022-11-21T02:43:14.106Z,992.93
2022-11-21T02:44:14.095Z,992.91
2022-11-21T02:45:14.083Z,992.89
2022-11-21T02:46:14.080Z,992.88
2022-11-21T02:47:14.066Z,992.87
2022-11-21T02:48:14.203Z,992.85
2022-11-21T02:49:14.043Z,992.83
2022-11-21T02:50:14.045Z,992.82
2022-11-21T02:51:14.020Z,992.82
2022-11-21T02:52:14.020Z,992.81
2022-11-21T02:53:14.000Z,992.82
2022-11-21T02:54:14.017Z,992.82
2022-11-21T02:55:13.981Z,992.82
2022-11-21T02:56:13.977Z,992.82
2022-11-21T02:57:15.045Z,992.82
2022-11-21T02:58:13.947Z,992.81
2022-11-21T02:59:13.933Z,992.81
2022-11-21T03:00:14.200Z,992.80
2022-11-21T03:01:13.954Z,992.79
2022-11-21T03:02:13.921Z,992.78
2022-11-21T03:03:13.899Z,992.79
2022-11-21T03:04:13.891Z,992.78
2022-11-21T03:05:13.873Z,992.77
2022-11-21T03:06:13.998Z,992.77
2022-11-21T03:07:13.885Z,992.76
2022-11-21T03:08:13.849Z,992.75
2022-11-21T03:09:13.836Z,992.74
2022-11-21T03:10:13.831Z,992.73
2022-11-21T03:11:13.816Z,992.72
2022-11-21T03:12:13.823Z,992.72
2022-11-21T03:13:13.792Z,992.71
2022-11-21T03:14:13.797Z,992.72
2022-11-21T03:15:13.778Z,992.73
2022-11-21T03:16:13.772Z,992.73
2022-11-21T03:17:13.751Z,992.74
2022-11-21T03:18:13.895Z,992.74
2022-11-21T03:19:13.730Z,992.73
2022-11-21T03:20:13.731Z,992.73
2022-11-21T03:21:13.707Z,992.72
2022-11-21T03:22:13.704Z,992.71
2022-11-21T03:23:13.695Z,992.69
2022-11-21T03:24:13.937Z,992.69
2022-11-21T03:25:13.671Z,992.70
2022-11-21T03:26:13.664Z,992.70
2022-11-21T03:27:13.650Z,992.70
2022-11-21T03:28:13.642Z,992.69
2022-11-21T03:29:13.638Z,992.68
2022-11-21T03:30:13.777Z,992.67
2022-11-21T03:31:13.612Z,992.67
2022-11-21T03:32:13.607Z,992.67
2022-11-21T03:33:13.585Z,992.69
2022-11-21T03:34:13.583Z,992.70
2022-11-21T03:35:13.574Z,992.69
2022-11-21T03:36:13.693Z,992.69
2022-11-21T03:37:13.545Z,992.70
2022-11-21T03:38:13.536Z,992.71
2022-11-21T03:39:13.526Z,992.70
2022-11-21T03:40:13.516Z,992.69
2022-11-21T03:41:13.507Z,992.68
2022-11-21T03:42:13.627Z,992.67
2022-11-21T03:43:13.485Z,992.67
2022-11-21T03:44:13.481Z,992.66
2022-11-21T03:45:13.464Z,992.66
2022-11-21T03:46:13.458Z,992.65
2022-11-21T03:47:13.442Z,992.64
2022-11-21T03:48:13.454Z,992.64
2022-11-21T03:49:13.415Z,992.63
2022-11-21T03:50:13.416Z,992.63
2022-11-21T03:51:13.407Z,992.61
2022-11-21T03:52:13.392Z,992.60
2022-11-21T03:53:13.388Z,992.59
2022-11-21T03:54:13.407Z,992.58
2022-11-21T03:55:13.365Z,992.57
2022-11-21T03:56:13.349Z,992.57
2022-11-21T03:57:14.640Z,992.57
2022-11-21T03:58:20.477Z,992.57
2022-11-21T03:59:13.311Z,992.56
2022-11-21T04:00:13.469Z,992.56
2022-11-21T04:01:13.310Z,992.55
2022-11-21T04:02:13.292Z,992.55
2022-11-21T04:03:13.297Z,992.54
2022-11-21T04:04:13.281Z,992.53
2022-11-21T04:05:13.255Z,992.52
2022-11-21T04:06:13.382Z,992.51
2022-11-21T04:07:13.335Z,992.50
2022-11-21T04:08:13.234Z,992.49
2022-11-21T04:09:13.212Z,992.49
2022-11-21T04:10:13.205Z,992.49
2022-11-21T04:11:13.195Z,992.49
2022-11-21T04:12:13.208Z,992.49
2022-11-21T04:13:13.180Z,992.49
2022-11-21T04:14:13.969Z,992.48
2022-11-21T04:15:14.296Z,992.47
2022-11-21T04:16:13.147Z,992.47
2022-11-21T04:17:13.957Z,992.47
2022-11-21T04:18:13.495Z,992.46
2022-11-21T04:19:13.110Z,992.46
2022-11-21T04:20:13.110Z,992.45
2022-11-21T04:21:13.095Z,992.45
2022-11-21T04:22:13.086Z,992.44
2022-11-21T04:23:13.066Z,992.44
2022-11-21T04:24:13.190Z,992.43
2022-11-21T04:25:13.053Z,992.44
2022-11-21T04:26:13.051Z,992.44
2022-11-21T04:27:13.035Z,992.43
2022-11-21T04:28:13.024Z,992.43
2022-11-21T04:29:13.002Z,992.43
2022-11-21T04:30:13.135Z,992.43
2022-11-21T04:31:12.992Z,992.43
2022-11-21T04:32:12.988Z,992.42
2022-11-21T04:33:12.984Z,992.41
2022-11-21T04:34:12.987Z,992.41
2022-11-21T04:35:12.959Z,992.41
2022-11-21T04:36:12.965Z,992.40
2022-11-21T04:37:13.036Z,992.39
2022-11-21T04:38:12.938Z,992.38
2022-11-21T04:39:12.902Z,992.37
2022-11-21T04:40:12.899Z,992.36
2022-11-21T04:41:12.894Z,992.34
2022-11-21T04:42:13.043Z,992.32
2022-11-21T04:43:12.869Z,992.32
2022-11-21T04:44:12.860Z,992.31
2022-11-21T04:45:12.837Z,992.31
2022-11-21T04:46:12.841Z,992.30
2022-11-21T04:47:12.851Z,992.29
2022-11-21T04:48:12.951Z,992.29
2022-11-21T04:49:12.798Z,992.29
2022-11-21T04:50:12.864Z,992.29
2022-11-21T04:51:12.787Z,992.27
2022-11-21T04:52:12.826Z,992.26
2022-11-21T04:53:12.777Z,992.25
2022-11-21T04:54:12.841Z,992.23
2022-11-21T04:55:12.785Z,992.23
2022-11-21T04:56:12.804Z,992.23
2022-11-21T04:57:12.771Z,992.24
2022-11-21T04:58:19.994Z,992.24
2022-11-21T04:59:12.764Z,992.24
2022-11-21T05:00:12.907Z,992.25
2022-11-21T05:01:12.848Z,992.25
2022-11-21T05:02:12.669Z,992.25
2022-11-21T05:03:12.667Z,992.24
2022-11-21T05:04:12.654Z,992.23
2022-11-21T05:05:12.637Z,992.23
2022-11-21T05:06:12.763Z,992.22
2022-11-21T05:07:12.638Z,992.22
2022-11-21T05:08:12.609Z,992.21
2022-11-21T05:09:12.590Z,992.21
2022-11-21T05:10:12.588Z,992.20
2022-11-21T05:11:12.576Z,992.20
2022-11-21T05:12:12.724Z,992.19
2022-11-21T05:13:12.553Z,992.19
2022-11-21T05:14:12.544Z,992.18
2022-11-21T05:15:12.532Z,992.16
2022-11-21T05:16:12.522Z,992.16
2022-11-21T05:17:12.511Z,992.16
2022-11-21T05:18:12.603Z,992.17
2022-11-21T05:19:12.493Z,992.18
2022-11-21T05:20:12.484Z,992.17
2022-11-21T05:21:12.473Z,992.16
2022-11-21T05:22:12.462Z,992.16
2022-11-21T05:23:12.443Z,992.16
2022-11-21T05:24:12.576Z,992.16
2022-11-21T05:25:12.425Z,992.15
2022-11-21T05:26:12.429Z,992.14
2022-11-21T05:27:12.406Z,992.12
2022-11-21T05:28:12.405Z,992.11
2022-11-21T05:29:12.387Z,992.12
2022-11-21T05:30:12.414Z,992.11
2022-11-21T05:31:12.368Z,992.10
2022-11-21T05:32:12.358Z,992.09
2022-11-21T05:33:12.346Z,992.10
2022-11-21T05:34:12.340Z,992.10
2022-11-21T05:35:12.333Z,992.10
2022-11-21T05:36:12.461Z,992.12
2022-11-21T05:37:12.305Z,992.13
2022-11-21T05:38:12.304Z,992.14
2022-11-21T05:39:12.283Z,992.14
2022-11-21T05:40:12.292Z,992.15
2022-11-21T05:41:12.275Z,992.16
2022-11-21T05:42:12.403Z,992.17
2022-11-21T05:43:12.250Z,992.18
2022-11-21T05:44:12.231Z,992.18
2022-11-21T05:45:12.222Z,992.19
2022-11-21T05:46:12.221Z,992.20
2022-11-21T05:47:12.210Z,992.21
2022-11-21T05:48:12.987Z,992.20
2022-11-21T05:49:12.180Z,992.19
2022-11-21T05:50:12.177Z,992.19
2022-11-21T05:51:12.172Z,992.18
2022-11-21T05:52:12.154Z,992.17
2022-11-21T05:53:12.137Z,992.15
2022-11-21T05:54:12.289Z,992.15
2022-11-21T05:55:12.124Z,992.13
2022-11-21T05:56:12.128Z,992.12
2022-11-21T05:57:12.120Z,992.12
2022-11-21T05:58:12.090Z,992.11
2022-11-21T05:59:12.087Z,992.12
2022-11-21T06:00:12.110Z,992.11
2022-11-21T06:01:12.060Z,992.11
2022-11-21T06:02:12.078Z,992.10
2022-11-21T06:03:12.068Z,992.09
2022-11-21T06:04:12.035Z,992.09
2022-11-21T06:05:12.023Z,992.08
2022-11-21T06:06:12.163Z,992.09
2022-11-21T06:07:12.060Z,992.11
2022-11-21T06:08:11.986Z,992.11
2022-11-21T06:09:11.980Z,992.12
2022-11-21T06:10:11.964Z,992.12
2022-11-21T06:11:11.972Z,992.12
2022-11-21T06:12:11.979Z,992.13
2022-11-21T06:13:11.941Z,992.14
2022-11-21T06:14:11.936Z,992.14
2022-11-21T06:15:11.917Z,992.14
2022-11-21T06:16:11.905Z,992.14
2022-11-21T06:17:11.896Z,992.14
2022-11-21T06:18:11.922Z,992.14
2022-11-21T06:19:11.881Z,992.13
2022-11-21T06:20:11.872Z,992.14
2022-11-21T06:21:11.859Z,992.14
2022-11-21T06:22:11.841Z,992.14
2022-11-21T06:23:11.849Z,992.13
2022-11-21T06:24:11.975Z,992.12
2022-11-21T06:25:11.817Z,992.13
2022-11-21T06:26:11.795Z,992.14
2022-11-21T06:27:11.799Z,992.15
2022-11-21T06:28:11.786Z,992.16
2022-11-21T06:29:11.790Z,992.17
2022-11-21T06:30:11.823Z,992.19
2022-11-21T06:31:11.760Z,992.20
2022-11-21T06:32:11.851Z,992.20
2022-11-21T06:33:11.732Z,992.20
2022-11-21T06:34:11.720Z,992.21
2022-11-21T06:35:11.739Z,992.21
2022-11-21T06:36:11.893Z,992.22
2022-11-21T06:37:11.690Z,992.23
2022-11-21T06:38:11.675Z,992.23
2022-11-21T06:39:11.672Z,992.24
2022-11-21T06:40:11.658Z,992.24
2022-11-21T06:41:11.651Z,992.26
2022-11-21T06:42:11.680Z,992.28
2022-11-21T06:43:11.633Z,992.28
2022-11-21T06:44:11.615Z,992.29
2022-11-21T06:45:11.611Z,992.30
2022-11-21T06:46:11.652Z,992.31
2022-11-21T06:47:11.587Z,992.31
2022-11-21T06:48:11.612Z,992.32
2022-11-21T06:49:11.567Z,992.32
2022-11-21T06:50:11.553Z,992.32
2022-11-21T06:51:11.545Z,992.33
2022-11-21T06:52:11.526Z,992.33
2022-11-21T06:53:11.527Z,992.32
2022-11-21T06:54:16.572Z,992.35
2022-11-21T06:55:11.511Z,992.36
2022-11-21T06:56:11.497Z,992.35
2022-11-21T06:57:11.492Z,992.34
2022-11-21T06:58:11.493Z,992.36
2022-11-21T06:59:11.468Z,992.37
2022-11-21T07:00:11.577Z,992.36
2022-11-21T07:01:11.481Z,992.36
2022-11-21T07:02:11.428Z,992.38
2022-11-21T07:03:11.422Z,992.37
2022-11-21T07:04:11.418Z,992.36
2022-11-21T07:05:11.410Z,992.37
2022-11-21T07:06:11.526Z,992.37
2022-11-21T07:07:11.407Z,992.39
2022-11-21T07:08:13.486Z,992.40
2022-11-21T07:09:32.360Z,992.43
2022-11-21T07:10:11.359Z,992.42
2022-11-21T07:11:24.688Z,992.44
2022-11-21T07:12:11.423Z,992.45
2022-11-21T07:13:11.269Z,992.44
2022-11-21T07:14:11.261Z,992.44
2022-11-21T07:15:11.245Z,992.44
2022-11-21T07:16:11.226Z,992.46
2022-11-21T07:17:11.225Z,992.44
2022-11-21T07:18:11.245Z,992.45
2022-11-21T07:19:11.205Z,992.45
2022-11-21T07:20:11.190Z,992.45
2022-11-21T07:21:11.194Z,992.47
2022-11-21T07:22:11.168Z,992.46
2022-11-21T07:23:11.162Z,992.49
2022-11-21T07:24:11.185Z,992.48
2022-11-21T07:25:11.152Z,992.50
2022-11-21T07:26:11.134Z,992.50
2022-11-21T07:27:11.120Z,992.51
2022-11-21T07:28:11.121Z,992.51
2022-11-21T07:29:11.104Z,992.49
2022-11-21T07:30:11.118Z,992.48
2022-11-21T07:31:13.943Z,992.47
2022-11-21T07:32:11.067Z,992.49
2022-11-21T07:33:11.069Z,992.51
2022-11-21T07:34:11.049Z,992.51
2022-11-21T07:35:11.043Z,992.52
2022-11-21T07:36:11.079Z,992.52
2022-11-21T07:37:11.014Z,992.53
2022-11-21T07:38:11.010Z,992.54
2022-11-21T07:39:11.053Z,992.55
2022-11-21T07:40:11.041Z,992.57
2022-11-21T07:41:11.035Z,992.56
2022-11-21T07:42:11.159Z,992.55
2022-11-21T07:43:11.249Z,992.56
2022-11-21T07:44:10.996Z,992.54
2022-11-21T07:45:10.996Z,992.55
2022-11-21T07:46:10.986Z,992.55
2022-11-21T07:47:10.977Z,992.54
2022-11-21T07:48:11.100Z,992.55
2022-11-21T07:49:10.973Z,992.55
2022-11-21T07:50:10.939Z,992.54
2022-11-21T07:51:10.939Z,992.54
2022-11-21T07:52:10.915Z,992.57
2022-11-21T07:53:10.910Z,992.56
2022-11-21T07:54:10.926Z,992.54
2022-11-21T07:55:10.910Z,992.54
2022-11-21T07:56:10.875Z,992.52
2022-11-21T07:57:10.873Z,992.51
2022-11-21T07:58:10.856Z,992.50
2022-11-21T07:59:10.851Z,992.49
2022-11-21T08:00:10.860Z,992.47
2022-11-21T08:01:10.827Z,992.47
2022-11-21T08:02:10.824Z,992.45
2022-11-21T08:03:10.824Z,992.43
2022-11-21T08:04:10.791Z,992.41
2022-11-21T08:05:10.791Z,992.40
2022-11-21T08:06:10.939Z,992.39
2022-11-21T08:07:10.799Z,992.41
2022-11-21T08:08:10.773Z,992.40
2022-11-21T08:09:10.745Z,992.39
2022-11-21T08:10:10.735Z,992.39
2022-11-21T08:11:10.821Z,992.41
2022-11-21T08:12:10.893Z,992.39
2022-11-21T08:13:10.719Z,992.40
2022-11-21T08:14:10.690Z,992.41
2022-11-21T08:15:10.697Z,992.41
2022-11-21T08:16:10.675Z,992.40
2022-11-21T08:17:10.665Z,992.41
2022-11-21T08:18:10.736Z,992.39
2022-11-21T08:19:10.587Z,992.38
2022-11-21T08:20:10.571Z,992.39
2022-11-21T08:21:10.582Z,992.39
2022-11-21T08:22:10.567Z,992.38
2022-11-21T08:23:10.559Z,992.38
2022-11-21T08:24:10.584Z,992.36
2022-11-21T08:25:10.584Z,992.36
2022-11-21T08:26:10.576Z,992.34
2022-11-21T08:27:10.555Z,992.33
2022-11-21T08:28:10.550Z,992.33
2022-11-21T08:29:10.542Z,992.35
2022-11-21T08:30:10.582Z,992.36
2022-11-21T08:31:10.524Z,992.35
2022-11-21T08:32:10.510Z,992.35
2022-11-21T08:33:10.507Z,992.33
2022-11-21T08:34:14.438Z,992.33
2022-11-21T08:35:10.474Z,992.32
2022-11-21T08:36:10.508Z,992.32
2022-11-21T08:37:10.404Z,992.30
2022-11-21T08:38:10.388Z,992.30
2022-11-21T08:39:10.387Z,992.30
2022-11-21T08:40:10.421Z,992.29
2022-11-21T08:41:16.121Z,992.29
2022-11-21T08:42:10.665Z,992.30
2022-11-21T08:43:10.397Z,992.31
2022-11-21T08:44:14.026Z,992.32
2022-11-21T08:45:10.422Z,992.31
2022-11-21T08:46:10.362Z,992.28
2022-11-21T08:47:10.377Z,992.28
2022-11-21T08:48:10.489Z,992.29
2022-11-21T08:49:10.332Z,992.30
2022-11-21T08:50:10.322Z,992.31
2022-11-21T08:51:10.311Z,992.31
2022-11-21T08:52:10.318Z,992.32
2022-11-21T08:53:10.298Z,992.31
2022-11-21T08:54:10.307Z,992.32
2022-11-21T08:55:10.274Z,992.29
2022-11-21T08:56:10.259Z,992.29
2022-11-21T08:57:10.250Z,992.29
2022-11-21T08:58:10.234Z,992.28
2022-11-21T08:59:10.232Z,992.28
2022-11-21T09:00:10.266Z,992.26
2022-11-21T09:01:10.210Z,992.27
2022-11-21T09:02:10.216Z,992.28
2022-11-21T09:03:10.185Z,992.28
2022-11-21T09:04:10.180Z,992.30
2022-11-21T09:05:10.167Z,992.31
2022-11-21T09:06:10.315Z,992.32
2022-11-21T09:07:10.157Z,992.33
2022-11-21T09:08:10.139Z,992.33
2022-11-21T09:09:10.134Z,992.33
2022-11-21T09:10:10.116Z,992.34
2022-11-21T09:11:10.113Z,992.33
2022-11-21T09:12:10.225Z,992.32
2022-11-21T09:13:10.089Z,992.34
2022-11-21T09:14:10.079Z,992.35
2022-11-21T09:15:10.070Z,992.35
2022-11-21T09:16:10.053Z,992.36
2022-11-21T09:17:10.043Z,992.36
2022-11-21T09:18:10.190Z,992.35
2022-11-21T09:19:10.024Z,992.34
2022-11-21T09:20:10.077Z,992.34
2022-11-21T09:21:10.010Z,992.32
2022-11-21T09:22:09.985Z,992.34
2022-11-21T09:23:09.984Z,992.34
2022-11-21T09:24:10.135Z,992.33
2022-11-21T09:25:09.963Z,992.33
2022-11-21T09:26:09.943Z,992.34
2022-11-21T09:27:09.947Z,992.37
2022-11-21T09:28:09.924Z,992.37
2022-11-21T09:29:10.015Z,992.37
2022-11-21T09:30:09.939Z,992.37
2022-11-21T09:31:09.902Z,992.37
2022-11-21T09:32:09.886Z,992.34
2022-11-21T09:33:09.886Z,992.32
2022-11-21T09:34:09.869Z,992.32
2022-11-21T09:35:09.853Z,992.31
2022-11-21T09:36:09.870Z,992.30
2022-11-21T09:37:09.846Z,992.30
2022-11-21T09:38:09.823Z,992.29
2022-11-21T09:39:09.770Z,992.27
2022-11-21T09:40:09.800Z,992.25
2022-11-21T09:41:09.796Z,992.24
2022-11-21T09:42:09.914Z,992.26
2022-11-21T09:43:09.777Z,992.27
2022-11-21T09:44:09.766Z,992.27
2022-11-21T09:45:09.769Z,992.28
2022-11-21T09:46:09.751Z,992.27
2022-11-21T09:47:09.734Z,992.27
2022-11-21T09:48:09.987Z,992.27
2022-11-21T09:49:09.711Z,992.27
2022-11-21T09:50:09.721Z,992.27
2022-11-21T09:51:09.698Z,992.27
2022-11-21T09:52:09.715Z,992.27
2022-11-21T09:53:09.674Z,992.25
2022-11-21T09:54:09.689Z,992.26
2022-11-21T09:55:09.654Z,992.25
2022-11-21T09:56:09.654Z,992.27
2022-11-21T09:57:09.626Z,992.28
2022-11-21T09:58:09.619Z,992.29
2022-11-21T09:59:09.604Z,992.29
2022-11-21T10:00:09.649Z,992.28
2022-11-21T10:01:09.668Z,992.28
2022-11-21T10:02:10.523Z,992.27
2022-11-21T10:03:09.568Z,992.28
2022-11-21T10:04:09.581Z,992.29
2022-11-21T10:05:09.543Z,992.30
2022-11-21T10:06:09.720Z,992.30
2022-11-21T10:07:09.585Z,992.33
2022-11-21T10:08:09.515Z,992.33
2022-11-21T10:09:09.506Z,992.33
2022-11-21T10:10:09.496Z,992.32
2022-11-21T10:11:19.120Z,992.31
2022-11-21T10:12:09.622Z,992.31
2022-11-21T10:13:09.461Z,992.31
2022-11-21T10:14:09.462Z,992.31
2022-11-21T10:15:09.444Z,992.31
2022-11-21T10:16:09.463Z,992.29
2022-11-21T10:17:09.435Z,992.30
2022-11-21T10:18:09.548Z,992.29
2022-11-21T10:19:09.413Z,992.30
2022-11-21T10:20:09.425Z,992.31
2022-11-21T10:21:09.377Z,992.31
2022-11-21T10:22:09.376Z,992.32
2022-11-21T10:23:09.361Z,992.33
2022-11-21T10:24:09.502Z,992.32
2022-11-21T10:25:09.357Z,992.32
2022-11-21T10:26:09.342Z,992.31
2022-11-21T10:27:09.319Z,992.31
2022-11-21T10:28:09.312Z,992.31
2022-11-21T10:29:09.297Z,992.32
2022-11-21T10:30:09.333Z,992.32
2022-11-21T10:31:09.276Z,992.30
2022-11-21T10:32:09.271Z,992.29
2022-11-21T10:33:09.256Z,992.30
2022-11-21T10:34:09.276Z,992.29
2022-11-21T10:35:09.240Z,992.28
2022-11-21T10:36:09.268Z,992.26
2022-11-21T10:37:11.876Z,992.27
2022-11-21T10:38:09.209Z,992.26
2022-11-21T10:39:09.200Z,992.27
2022-11-21T10:40:09.191Z,992.28
2022-11-21T10:41:09.172Z,992.29
2022-11-21T10:42:09.317Z,992.30
2022-11-21T10:43:09.154Z,992.30
2022-11-21T10:44:09.098Z,992.29
2022-11-21T10:45:09.146Z,992.29
2022-11-21T10:46:09.131Z,992.29
2022-11-21T10:47:09.112Z,992.29
2022-11-21T10:48:09.282Z,992.28
2022-11-21T10:49:09.087Z,992.28
2022-11-21T10:50:09.084Z,992.27
2022-11-21T10:51:09.065Z,992.27
2022-11-21T10:52:09.069Z,992.26
2022-11-21T10:53:09.055Z,992.26
2022-11-21T10:54:09.347Z,992.27
2022-11-21T10:55:09.035Z,992.27
2022-11-21T10:56:09.022Z,992.28
2022-11-21T10:57:09.003Z,992.29
2022-11-21T10:58:09.002Z,992.31
2022-11-21T10:59:08.996Z,992.29
2022-11-21T11:00:09.139Z,992.28
2022-11-21T11:01:09.064Z,992.29
2022-11-21T11:02:08.962Z,992.30
2022-11-21T11:03:08.947Z,992.30
2022-11-21T11:05:08.898Z,992.29
2022-11-21T11:06:09.113Z,992.28
2022-11-21T11:07:08.944Z,992.28
2022-11-21T11:08:08.848Z,992.27
2022-11-21T11:09:08.851Z,992.26
2022-11-21T11:10:08.835Z,992.26
2022-11-21T11:11:08.808Z,992.25
2022-11-21T11:12:08.974Z,992.23
2022-11-21T11:13:30.706Z,992.24
2022-11-21T11:14:08.791Z,992.25
2022-11-21T11:15:08.773Z,992.26
2022-11-21T11:16:08.790Z,992.24
2022-11-21T11:17:08.751Z,992.24
2022-11-21T11:18:09.778Z,992.24
2022-11-21T11:19:08.765Z,992.24
2022-11-21T11:20:08.723Z,992.24
2022-11-21T11:21:08.712Z,992.24
2022-11-21T11:22:08.761Z,992.24
2022-11-21T11:23:08.795Z,992.23
2022-11-21T11:24:08.890Z,992.25
2022-11-21T11:25:08.720Z,992.24
2022-11-21T11:26:08.713Z,992.26
2022-11-21T11:27:08.697Z,992.26
2022-11-21T11:28:08.695Z,992.27
2022-11-21T11:29:08.685Z,992.27
2022-11-21T11:30:08.952Z,992.27
2022-11-21T11:31:08.659Z,992.27
2022-11-21T11:32:08.658Z,992.27
2022-11-21T11:33:08.637Z,992.27
2022-11-21T11:34:08.628Z,992.28
2022-11-21T11:35:08.621Z,992.30
2022-11-21T11:36:08.779Z,992.30
2022-11-21T11:37:08.596Z,992.31
2022-11-21T11:38:08.592Z,992.32
2022-11-21T11:39:08.601Z,992.31
2022-11-21T11:40:08.577Z,992.30
2022-11-21T11:41:08.557Z,992.30
2022-11-21T11:42:13.781Z,992.29
2022-11-21T11:43:08.543Z,992.27
2022-11-21T11:44:08.529Z,992.27
2022-11-21T11:45:08.517Z,992.28
2022-11-21T11:46:08.504Z,992.27
2022-11-21T11:47:08.493Z,992.28
2022-11-21T11:48:08.561Z,992.29
2022-11-21T11:49:20.191Z,992.30
2022-11-21T11:50:08.413Z,992.31
2022-11-21T11:51:08.405Z,992.32
2022-11-21T11:52:08.453Z,992.32
2022-11-21T11:53:08.431Z,992.31
2022-11-21T11:54:08.612Z,992.30
2022-11-21T11:55:08.428Z,992.29
2022-11-21T11:56:08.413Z,992.29
2022-11-21T11:57:08.387Z,992.28
2022-11-21T11:58:08.388Z,992.28
2022-11-21T11:59:08.371Z,992.29
2022-11-21T12:00:08.431Z,992.29
2022-11-21T12:01:08.348Z,992.29
2022-11-21T12:02:11.850Z,992.29
2022-11-21T12:03:08.333Z,992.28
2022-11-21T12:04:08.337Z,992.28
2022-11-21T12:05:08.309Z,992.27
2022-11-21T12:06:09.632Z,992.27
2022-11-21T12:09:08.301Z,992.27
2022-11-21T12:10:08.229Z,992.28
2022-11-21T12:11:08.210Z,992.27
2022-11-21T12:12:08.222Z,992.28
2022-11-21T12:13:08.177Z,992.29
2022-11-21T12:14:08.174Z,992.29
2022-11-21T12:15:08.148Z,992.30
2022-11-21T12:16:13.186Z,992.29
2022-11-21T12:17:08.135Z,992.29
2022-11-21T12:18:08.257Z,992.29
2022-11-21T12:19:08.181Z,992.29
2022-11-21T12:20:08.157Z,992.29
2022-11-21T12:21:08.144Z,992.29
2022-11-21T12:22:08.098Z,992.28
2022-11-21T12:23:08.068Z,992.26
2022-11-21T12:24:08.192Z,992.26
2022-11-21T12:25:08.049Z,992.25
2022-11-21T12:26:08.043Z,992.25
2022-11-21T12:27:08.027Z,992.25
2022-11-21T12:28:08.030Z,992.25
2022-11-21T12:29:08.009Z,992.26
2022-11-21T12:30:08.097Z,992.25
2022-11-21T12:31:08.001Z,992.26